sensor_id;sensor_type;location;lat;lon;timestamp;temperature;humidity
1377;DHT22;682;52.502;13.488;2023-04-09T00:01:44;6.10;1.00
1377;DHT22;682;52.502;13.488;2023-04-09T00:04:12;6.10;1.00
1377;DHT22;682;52.502;13.488;2023-04-09T00:06:40;6.20;1.00
1377;DHT22;682;52.502;13.488;2023-04-09T00:09:07;6.20;1.00
1377;DHT22;682;52.502;13.488;2023-04-09T00:11:34;6.20;1.00
1377;DHT22;682;52.502;13.488;2023-04-09T00:14:01;6.30;1.00
1377;DHT22;682;52.502;13.488;2023-04-09T00:16:31;6.30;1.00
1377;DHT22;682;52.502;13.488;2023-04-09T00:18:58;6.30;1.00
1377;DHT22;682;52.502;13.488;2023-04-09T00:21:25;6.30;1.00
1377;DHT22;682;52.502;13.488;2023-04-09T00:23:52;6.30;1.00
1377;DHT22;682;52.502;13.488;2023-04-09T00:26:20;6.40;1.00
1377;DHT22;682;52.502;13.488;2023-04-09T00:28:47;6.30;1.00
1377;DHT22;682;52.502;13.488;2023-04-09T00:31:14;6.30;1.00
1377;DHT22;682;52.502;13.488;2023-04-09T00:33:42;6.20;1.00
1377;DHT22;682;52.502;13.488;2023-04-09T00:36:09;6.10;1.00
1377;DHT22;682;52.502;13.488;2023-04-09T00:38:37;6.00;1.00
1377;DHT22;682;52.502;13.488;2023-04-09T00:41:04;5.90;1.00
1377;DHT22;682;52.502;13.488;2023-04-09T00:43:31;5.90;1.00
1377;DHT22;682;52.502;13.488;2023-04-09T00:45:58;5.90;1.00
1377;DHT22;682;52.502;13.488;2023-04-09T00:48:26;5.80;1.00
1377;DHT22;682;52.502;13.488;2023-04-09T00:50:55;5.80;1.00
1377;DHT22;682;52.502;13.488;2023-04-09T00:53:22;5.70;1.00
1377;DHT22;682;52.502;13.488;2023-04-09T00:55:49;5.60;1.00
1377;DHT22;682;52.502;13.488;2023-04-09T00:58:18;5.50;1.00
1377;DHT22;682;52.502;13.488;2023-04-09T01:00:45;5.50;1.00
1377;DHT22;682;52.502;13.488;2023-04-09T01:05:57;5.30;1.00
1377;DHT22;682;52.502;13.488;2023-04-09T01:08:32;5.30;1.00
1377;DHT22;682;52.502;13.488;2023-04-09T01:11:08;5.20;1.00
1377;DHT22;682;52.502;13.488;2023-04-09T01:13:44;5.30;1.00
1377;DHT22;682;52.502;13.488;2023-04-09T01:16:15;5.20;1.00
1377;DHT22;682;52.502;13.488;2023-04-09T01:18:50;5.20;1.00
1377;DHT22;682;52.502;13.488;2023-04-09T01:21:24;5.10;1.00
1377;DHT22;682;52.502;13.488;2023-04-09T01:23:58;5.10;1.00
1377;DHT22;682;52.502;13.488;2023-04-09T01:26:44;5.10;1.00
1377;DHT22;682;52.502;13.488;2023-04-09T01:29:17;5.20;1.00
1377;DHT22;682;52.502;13.488;2023-04-09T01:31:47;5.30;1.00
1377;DHT22;682;52.502;13.488;2023-04-09T01:34:15;5.20;1.00
1377;DHT22;682;52.502;13.488;2023-04-09T01:36:49;5.10;1.00
1377;DHT22;682;52.502;13.488;2023-04-09T01:39:18;5.10;1.00
1377;DHT22;682;52.502;13.488;2023-04-09T01:41:46;5.10;1.00
1377;DHT22;682;52.502;13.488;2023-04-09T01:44:15;5.10;1.00
1377;DHT22;682;52.502;13.488;2023-04-09T01:46:46;5.10;1.00
1377;DHT22;682;52.502;13.488;2023-04-09T01:49:14;5.10;1.00
1377;DHT22;682;52.502;13.488;2023-04-09T01:51:41;5.10;1.00
1377;DHT22;682;52.502;13.488;2023-04-09T01:54:09;5.20;1.00
1377;DHT22;682;52.502;13.488;2023-04-09T01:56:41;5.20;1.00
1377;DHT22;682;52.502;13.488;2023-04-09T01:59:08;5.10;1.00
1377;DHT22;682;52.502;13.488;2023-04-09T02:01:43;5.00;1.00
1377;DHT22;682;52.502;13.488;2023-04-09T02:04:19;5.10;1.00
1377;DHT22;682;52.502;13.488;2023-04-09T02:06:53;5.10;1.00
1377;DHT22;682;52.502;13.488;2023-04-09T02:09:30;5.00;1.00
1377;DHT22;682;52.502;13.488;2023-04-09T02:11:58;4.90;1.00
1377;DHT22;682;52.502;13.488;2023-04-09T02:14:31;4.90;1.00
1377;DHT22;682;52.502;13.488;2023-04-09T02:17:01;4.80;1.00
1377;DHT22;682;52.502;13.488;2023-04-09T02:19:39;4.70;1.00
1377;DHT22;682;52.502;13.488;2023-04-09T02:22:07;4.60;1.00
1377;DHT22;682;52.502;13.488;2023-04-09T02:24:38;4.60;1.00
1377;DHT22;682;52.502;13.488;2023-04-09T02:27:06;4.60;1.00
1377;DHT22;682;52.502;13.488;2023-04-09T02:29:34;4.50;1.00
1377;DHT22;682;52.502;13.488;2023-04-09T02:32:03;4.50;1.00
1377;DHT22;682;52.502;13.488;2023-04-09T02:34:30;4.60;1.00
1377;DHT22;682;52.502;13.488;2023-04-09T02:36:58;4.60;1.00
1377;DHT22;682;52.502;13.488;2023-04-09T02:39:25;4.60;1.00
1377;DHT22;682;52.502;13.488;2023-04-09T02:41:56;4.60;1.00
1377;DHT22;682;52.502;13.488;2023-04-09T02:44:23;4.50;1.00
1377;DHT22;682;52.502;13.488;2023-04-09T02:46:51;4.50;1.00
1377;DHT22;682;52.502;13.488;2023-04-09T02:49:19;4.40;1.00
1377;DHT22;682;52.502;13.488;2023-04-09T02:51:47;4.40;1.00
1377;DHT22;682;52.502;13.488;2023-04-09T02:54:14;4.30;1.00
1377;DHT22;682;52.502;13.488;2023-04-09T02:56:41;4.30;1.00
1377;DHT22;682;52.502;13.488;2023-04-09T02:59:08;4.40;1.00
1377;DHT22;682;52.502;13.488;2023-04-09T03:01:35;4.40;1.00
1377;DHT22;682;52.502;13.488;2023-04-09T03:04:03;4.40;1.00
1377;DHT22;682;52.502;13.488;2023-04-09T03:06:32;4.50;1.00
1377;DHT22;682;52.502;13.488;2023-04-09T03:09:01;4.50;1.00
1377;DHT22;682;52.502;13.488;2023-04-09T03:11:28;4.50;1.00
1377;DHT22;682;52.502;13.488;2023-04-09T03:13:55;4.60;1.00
1377;DHT22;682;52.502;13.488;2023-04-09T03:16:24;4.60;1.00
1377;DHT22;682;52.502;13.488;2023-04-09T03:18:51;4.70;1.00
1377;DHT22;682;52.502;13.488;2023-04-09T03:21:18;4.70;1.00
1377;DHT22;682;52.502;13.488;2023-04-09T03:23:47;4.70;1.00
1377;DHT22;682;52.502;13.488;2023-04-09T03:26:15;4.70;1.00
1377;DHT22;682;52.502;13.488;2023-04-09T03:28:45;4.70;1.00
1377;DHT22;682;52.502;13.488;2023-04-09T03:31:12;4.70;1.00
1377;DHT22;682;52.502;13.488;2023-04-09T03:33:39;4.70;1.00
1377;DHT22;682;52.502;13.488;2023-04-09T03:36:06;4.70;1.00
1377;DHT22;682;52.502;13.488;2023-04-09T03:38:37;4.70;1.00
1377;DHT22;682;52.502;13.488;2023-04-09T03:41:05;4.70;1.00
1377;DHT22;682;52.502;13.488;2023-04-09T03:43:33;4.70;1.00
1377;DHT22;682;52.502;13.488;2023-04-09T03:46:00;4.70;1.00
1377;DHT22;682;52.502;13.488;2023-04-09T03:48:27;4.70;1.00
1377;DHT22;682;52.502;13.488;2023-04-09T03:50:54;4.60;1.00
1377;DHT22;682;52.502;13.488;2023-04-09T03:53:21;4.70;1.00
1377;DHT22;682;52.502;13.488;2023-04-09T03:55:48;4.60;1.00
1377;DHT22;682;52.502;13.488;2023-04-09T03:58:17;4.60;1.00
1377;DHT22;682;52.502;13.488;2023-04-09T04:00:46;4.60;1.00
1377;DHT22;682;52.502;13.488;2023-04-09T04:03:14;4.60;1.00
1377;DHT22;682;52.502;13.488;2023-04-09T04:05:41;4.50;1.00
1377;DHT22;682;52.502;13.488;2023-04-09T04:08:08;4.50;1.00
1377;DHT22;682;52.502;13.488;2023-04-09T04:10:36;4.50;1.00
1377;DHT22;682;52.502;13.488;2023-04-09T04:13:03;4.40;1.00
1377;DHT22;682;52.502;13.488;2023-04-09T04:15:41;4.40;1.00
1377;DHT22;682;52.502;13.488;2023-04-09T04:18:09;4.40;1.00
1377;DHT22;682;52.502;13.488;2023-04-09T04:20:37;4.30;1.00
1377;DHT22;682;52.502;13.488;2023-04-09T04:23:04;4.30;1.00
1377;DHT22;682;52.502;13.488;2023-04-09T04:25:31;4.30;1.00
1377;DHT22;682;52.502;13.488;2023-04-09T04:28:01;4.30;1.00
1377;DHT22;682;52.502;13.488;2023-04-09T04:30:28;4.30;1.00
1377;DHT22;682;52.502;13.488;2023-04-09T04:32:56;4.30;1.00
1377;DHT22;682;52.502;13.488;2023-04-09T04:35:25;4.30;1.00
1377;DHT22;682;52.502;13.488;2023-04-09T04:37:52;4.30;1.00
1377;DHT22;682;52.502;13.488;2023-04-09T04:40:19;4.40;1.00
1377;DHT22;682;52.502;13.488;2023-04-09T04:42:46;4.40;1.00
1377;DHT22;682;52.502;13.488;2023-04-09T04:45:13;4.40;1.00
1377;DHT22;682;52.502;13.488;2023-04-09T04:47:40;4.50;1.00
1377;DHT22;682;52.502;13.488;2023-04-09T04:50:09;4.50;1.00
1377;DHT22;682;52.502;13.488;2023-04-09T04:52:36;4.60;1.00
1377;DHT22;682;52.502;13.488;2023-04-09T04:55:05;4.70;1.00
1377;DHT22;682;52.502;13.488;2023-04-09T04:57:32;4.80;1.00
1377;DHT22;682;52.502;13.488;2023-04-09T04:59:59;4.90;1.00
1377;DHT22;682;52.502;13.488;2023-04-09T05:02:26;5.00;1.00
1377;DHT22;682;52.502;13.488;2023-04-09T05:04:53;5.00;1.00
1377;DHT22;682;52.502;13.488;2023-04-09T05:07:22;5.10;1.00
1377;DHT22;682;52.502;13.488;2023-04-09T05:09:49;5.10;1.00
1377;DHT22;682;52.502;13.488;2023-04-09T05:12:16;5.10;1.00
1377;DHT22;682;52.502;13.488;2023-04-09T05:14:43;5.20;1.00
1377;DHT22;682;52.502;13.488;2023-04-09T05:17:11;5.30;1.00
1377;DHT22;682;52.502;13.488;2023-04-09T05:19:37;5.30;1.00
1377;DHT22;682;52.502;13.488;2023-04-09T05:22:04;5.40;1.00
1377;DHT22;682;52.502;13.488;2023-04-09T05:24:33;5.30;1.00
1377;DHT22;682;52.502;13.488;2023-04-09T05:27:00;5.30;1.00
1377;DHT22;682;52.502;13.488;2023-04-09T05:29:27;5.40;1.00
1377;DHT22;682;52.502;13.488;2023-04-09T05:31:54;5.40;1.00
1377;DHT22;682;52.502;13.488;2023-04-09T05:34:21;5.40;1.00
1377;DHT22;682;52.502;13.488;2023-04-09T05:36:48;5.40;1.00
1377;DHT22;682;52.502;13.488;2023-04-09T05:39:15;5.40;1.00
1377;DHT22;682;52.502;13.488;2023-04-09T05:41:43;5.50;1.00
1377;DHT22;682;52.502;13.488;2023-04-09T05:44:11;5.50;1.00
1377;DHT22;682;52.502;13.488;2023-04-09T05:46:39;5.40;1.00
1377;DHT22;682;52.502;13.488;2023-04-09T05:49:06;5.20;1.00
1377;DHT22;682;52.502;13.488;2023-04-09T05:51:33;4.90;1.00
1377;DHT22;682;52.502;13.488;2023-04-09T05:54:01;4.90;1.00
1377;DHT22;682;52.502;13.488;2023-04-09T05:56:28;4.70;1.00
1377;DHT22;682;52.502;13.488;2023-04-09T05:58:56;4.90;1.00
1377;DHT22;682;52.502;13.488;2023-04-09T06:01:23;5.00;1.00
1377;DHT22;682;52.502;13.488;2023-04-09T06:03:51;5.20;1.00
1377;DHT22;682;52.502;13.488;2023-04-09T06:06:19;5.40;1.00
1377;DHT22;682;52.502;13.488;2023-04-09T06:08:46;5.50;1.00
1377;DHT22;682;52.502;13.488;2023-04-09T06:11:13;5.60;1.00
1377;DHT22;682;52.502;13.488;2023-04-09T06:13:40;5.70;1.00
1377;DHT22;682;52.502;13.488;2023-04-09T06:16:12;5.70;1.00
1377;DHT22;682;52.502;13.488;2023-04-09T06:18:39;5.80;1.00
1377;DHT22;682;52.502;13.488;2023-04-09T06:21:08;5.80;1.00
1377;DHT22;682;52.502;13.488;2023-04-09T06:23:35;5.90;1.00
1377;DHT22;682;52.502;13.488;2023-04-09T06:26:02;6.00;1.00
1377;DHT22;682;52.502;13.488;2023-04-09T06:28:31;6.20;1.00
1377;DHT22;682;52.502;13.488;2023-04-09T06:30:58;6.30;1.00
1377;DHT22;682;52.502;13.488;2023-04-09T06:33:31;6.40;1.00
1377;DHT22;682;52.502;13.488;2023-04-09T06:35:59;6.50;1.00
1377;DHT22;682;52.502;13.488;2023-04-09T06:38:26;6.60;1.00
1377;DHT22;682;52.502;13.488;2023-04-09T06:40:59;6.80;1.00
1377;DHT22;682;52.502;13.488;2023-04-09T06:43:26;7.00;1.00
1377;DHT22;682;52.502;13.488;2023-04-09T06:45:53;7.20;1.00
1377;DHT22;682;52.502;13.488;2023-04-09T06:48:23;7.40;1.00
1377;DHT22;682;52.502;13.488;2023-04-09T06:50:52;7.50;1.00
1377;DHT22;682;52.502;13.488;2023-04-09T06:53:19;7.60;1.00
1377;DHT22;682;52.502;13.488;2023-04-09T06:55:46;7.70;1.00
1377;DHT22;682;52.502;13.488;2023-04-09T06:58:15;7.90;1.00
1377;DHT22;682;52.502;13.488;2023-04-09T07:00:42;8.00;1.00
1377;DHT22;682;52.502;13.488;2023-04-09T07:03:09;8.10;1.00
1377;DHT22;682;52.502;13.488;2023-04-09T07:05:37;8.10;1.00
1377;DHT22;682;52.502;13.488;2023-04-09T07:08:06;8.20;1.00
1377;DHT22;682;52.502;13.488;2023-04-09T07:10:33;8.40;1.00
1377;DHT22;682;52.502;13.488;2023-04-09T07:13:00;8.50;1.00
1377;DHT22;682;52.502;13.488;2023-04-09T07:15:27;8.50;1.00
1377;DHT22;682;52.502;13.488;2023-04-09T07:17:54;8.40;1.00
1377;DHT22;682;52.502;13.488;2023-04-09T07:20:22;8.40;1.00
1377;DHT22;682;52.502;13.488;2023-04-09T07:22:49;8.40;1.00
1377;DHT22;682;52.502;13.488;2023-04-09T07:25:17;8.50;1.00
1377;DHT22;682;52.502;13.488;2023-04-09T07:27:45;8.80;1.00
1377;DHT22;682;52.502;13.488;2023-04-09T07:30:14;9.00;1.00
1377;DHT22;682;52.502;13.488;2023-04-09T07:32:41;9.10;1.00
1377;DHT22;682;52.502;13.488;2023-04-09T07:35:08;9.00;1.00
1377;DHT22;682;52.502;13.488;2023-04-09T07:37:35;9.00;1.00
1377;DHT22;682;52.502;13.488;2023-04-09T07:40:03;8.90;1.00
1377;DHT22;682;52.502;13.488;2023-04-09T07:42:31;8.80;1.00
1377;DHT22;682;52.502;13.488;2023-04-09T07:44:58;8.80;1.00
1377;DHT22;682;52.502;13.488;2023-04-09T07:47:25;8.90;1.00
1377;DHT22;682;52.502;13.488;2023-04-09T07:49:53;8.90;1.00
1377;DHT22;682;52.502;13.488;2023-04-09T07:52:20;9.10;1.00
1377;DHT22;682;52.502;13.488;2023-04-09T07:54:48;9.20;1.00
1377;DHT22;682;52.502;13.488;2023-04-09T07:57:14;9.20;1.00
1377;DHT22;682;52.502;13.488;2023-04-09T07:59:43;9.40;1.00
1377;DHT22;682;52.502;13.488;2023-04-09T08:02:10;9.40;1.00
1377;DHT22;682;52.502;13.488;2023-04-09T08:04:37;9.50;1.00
1377;DHT22;682;52.502;13.488;2023-04-09T08:07:04;9.60;1.00
1377;DHT22;682;52.502;13.488;2023-04-09T08:09:31;9.60;1.00
1377;DHT22;682;52.502;13.488;2023-04-09T08:11:58;9.70;1.00
1377;DHT22;682;52.502;13.488;2023-04-09T08:14:25;9.60;1.00
1377;DHT22;682;52.502;13.488;2023-04-09T08:16:54;9.70;1.00
1377;DHT22;682;52.502;13.488;2023-04-09T08:19:21;9.80;1.00
1377;DHT22;682;52.502;13.488;2023-04-09T08:21:49;9.80;1.00
1377;DHT22;682;52.502;13.488;2023-04-09T08:24:17;9.90;1.00
1377;DHT22;682;52.502;13.488;2023-04-09T08:26:46;10.00;1.00
1377;DHT22;682;52.502;13.488;2023-04-09T08:29:13;10.00;1.00
1377;DHT22;682;52.502;13.488;2023-04-09T08:31:40;10.10;1.00
1377;DHT22;682;52.502;13.488;2023-04-09T08:34:09;10.00;1.00
1377;DHT22;682;52.502;13.488;2023-04-09T08:36:38;10.00;1.00
1377;DHT22;682;52.502;13.488;2023-04-09T08:39:05;10.00;1.00
1377;DHT22;682;52.502;13.488;2023-04-09T08:41:33;10.10;1.00
1377;DHT22;682;52.502;13.488;2023-04-09T08:44:01;10.20;1.00
1377;DHT22;682;52.502;13.488;2023-04-09T08:46:28;10.20;1.00
1377;DHT22;682;52.502;13.488;2023-04-09T08:48:56;10.20;1.00
1377;DHT22;682;52.502;13.488;2023-04-09T08:51:25;10.30;1.00
1377;DHT22;682;52.502;13.488;2023-04-09T08:53:55;10.60;1.00
1377;DHT22;682;52.502;13.488;2023-04-09T08:56:23;10.80;1.00
1377;DHT22;682;52.502;13.488;2023-04-09T08:58:51;11.00;1.00
1377;DHT22;682;52.502;13.488;2023-04-09T09:01:19;11.00;1.00
1377;DHT22;682;52.502;13.488;2023-04-09T09:03:57;11.30;1.00
1377;DHT22;682;52.502;13.488;2023-04-09T09:06:27;11.40;1.00
1377;DHT22;682;52.502;13.488;2023-04-09T09:09:04;11.60;1.00
1377;DHT22;682;52.502;13.488;2023-04-09T09:11:33;11.80;1.00
1377;DHT22;682;52.502;13.488;2023-04-09T09:14:01;11.80;1.00
1377;DHT22;682;52.502;13.488;2023-04-09T09:16:29;11.90;1.00
1377;DHT22;682;52.502;13.488;2023-04-09T09:18:59;12.10;1.00
1377;DHT22;682;52.502;13.488;2023-04-09T09:21:28;12.30;1.00
1377;DHT22;682;52.502;13.488;2023-04-09T09:23:56;12.40;1.00
1377;DHT22;682;52.502;13.488;2023-04-09T09:26:25;12.60;1.00
1377;DHT22;682;52.502;13.488;2023-04-09T09:28:54;12.90;1.00
1377;DHT22;682;52.502;13.488;2023-04-09T09:31:24;13.50;1.00
1377;DHT22;682;52.502;13.488;2023-04-09T09:33:51;13.90;1.00
1377;DHT22;682;52.502;13.488;2023-04-09T09:36:31;14.20;1.00
1377;DHT22;682;52.502;13.488;2023-04-09T09:39:00;14.40;1.00
1377;DHT22;682;52.502;13.488;2023-04-09T09:41:30;14.50;1.00
1377;DHT22;682;52.502;13.488;2023-04-09T09:43:57;14.70;1.00
1377;DHT22;682;52.502;13.488;2023-04-09T09:46:25;14.80;1.00
1377;DHT22;682;52.502;13.488;2023-04-09T09:48:53;15.30;1.00
1377;DHT22;682;52.502;13.488;2023-04-09T09:51:24;15.70;1.00
1377;DHT22;682;52.502;13.488;2023-04-09T09:53:56;16.20;1.00
1377;DHT22;682;52.502;13.488;2023-04-09T09:56:24;16.70;1.00
1377;DHT22;682;52.502;13.488;2023-04-09T09:59:04;17.60;1.00
1377;DHT22;682;52.502;13.488;2023-04-09T10:01:33;18.90;1.00
1377;DHT22;682;52.502;13.488;2023-04-09T10:04:02;19.70;1.00
1377;DHT22;682;52.502;13.488;2023-04-09T10:06:32;19.10;1.00
1377;DHT22;682;52.502;13.488;2023-04-09T10:09:03;18.80;1.00
1377;DHT22;682;52.502;13.488;2023-04-09T10:11:32;18.50;1.00
1377;DHT22;682;52.502;13.488;2023-04-09T10:14:01;18.00;1.00
1377;DHT22;682;52.502;13.488;2023-04-09T10:16:30;18.20;1.00
1377;DHT22;682;52.502;13.488;2023-04-09T10:19:00;18.90;1.00
1377;DHT22;682;52.502;13.488;2023-04-09T10:21:35;20.10;1.00
1377;DHT22;682;52.502;13.488;2023-04-09T10:24:06;20.10;1.00
1377;DHT22;682;52.502;13.488;2023-04-09T10:26:35;20.40;1.00
1377;DHT22;682;52.502;13.488;2023-04-09T10:29:06;19.80;1.00
1377;DHT22;682;52.502;13.488;2023-04-09T10:31:47;20.30;1.00
1377;DHT22;682;52.502;13.488;2023-04-09T10:34:17;21.30;1.00
1377;DHT22;682;52.502;13.488;2023-04-09T10:36:50;21.70;1.00
1377;DHT22;682;52.502;13.488;2023-04-09T10:39:18;21.80;1.00
1377;DHT22;682;52.502;13.488;2023-04-09T10:41:47;20.80;1.00
1377;DHT22;682;52.502;13.488;2023-04-09T10:44:19;20.10;1.00
1377;DHT22;682;52.502;13.488;2023-04-09T10:46:47;19.40;1.00
1377;DHT22;682;52.502;13.488;2023-04-09T10:49:19;18.90;1.00
1377;DHT22;682;52.502;13.488;2023-04-09T10:51:53;19.10;1.00
1377;DHT22;682;52.502;13.488;2023-04-09T10:54:44;20.20;1.00
1377;DHT22;682;52.502;13.488;2023-04-09T10:57:19;21.60;1.00
1377;DHT22;682;52.502;13.488;2023-04-09T10:59:48;23.10;1.00
1377;DHT22;682;52.502;13.488;2023-04-09T11:05:29;24.80;1.00
1377;DHT22;682;52.502;13.488;2023-04-09T11:08:04;25.10;1.00
1377;DHT22;682;52.502;13.488;2023-04-09T11:10:33;25.60;1.00
1377;DHT22;682;52.502;13.488;2023-04-09T11:13:01;25.90;1.00
1377;DHT22;682;52.502;13.488;2023-04-09T11:15:29;26.10;1.00
1377;DHT22;682;52.502;13.488;2023-04-09T11:17:56;25.90;1.00
1377;DHT22;682;52.502;13.488;2023-04-09T11:20:25;25.80;1.00
1377;DHT22;682;52.502;13.488;2023-04-09T11:22:53;26.30;1.00
1377;DHT22;682;52.502;13.488;2023-04-09T11:25:23;27.20;1.00
1377;DHT22;682;52.502;13.488;2023-04-09T11:27:52;27.80;1.00
1377;DHT22;682;52.502;13.488;2023-04-09T11:30:19;27.90;1.00
1377;DHT22;682;52.502;13.488;2023-04-09T11:32:47;27.70;1.00
1377;DHT22;682;52.502;13.488;2023-04-09T11:35:15;28.00;1.00
1377;DHT22;682;52.502;13.488;2023-04-09T11:37:43;27.60;1.00
1377;DHT22;682;52.502;13.488;2023-04-09T11:40:15;27.20;1.00
1377;DHT22;682;52.502;13.488;2023-04-09T11:42:47;26.90;1.00
1377;DHT22;682;52.502;13.488;2023-04-09T11:45:16;27.10;1.00
1377;DHT22;682;52.502;13.488;2023-04-09T11:47:44;27.20;1.00
1377;DHT22;682;52.502;13.488;2023-04-09T11:50:13;27.30;1.00
1377;DHT22;682;52.502;13.488;2023-04-09T11:52:41;26.70;1.00
1377;DHT22;682;52.502;13.488;2023-04-09T11:55:08;25.70;1.00
1377;DHT22;682;52.502;13.488;2023-04-09T11:57:38;25.90;1.00
1377;DHT22;682;52.502;13.488;2023-04-09T12:00:08;27.00;1.00
1377;DHT22;682;52.502;13.488;2023-04-09T12:02:40;28.10;1.00
1377;DHT22;682;52.502;13.488;2023-04-09T12:05:09;29.50;1.00
1377;DHT22;682;52.502;13.488;2023-04-09T12:07:37;29.70;1.00
1377;DHT22;682;52.502;13.488;2023-04-09T12:10:05;29.60;1.00
1377;DHT22;682;52.502;13.488;2023-04-09T12:12:39;30.00;1.00
1377;DHT22;682;52.502;13.488;2023-04-09T12:15:19;29.70;1.00
1377;DHT22;682;52.502;13.488;2023-04-09T12:17:49;30.00;1.00
1377;DHT22;682;52.502;13.488;2023-04-09T12:20:27;30.20;1.00
1377;DHT22;682;52.502;13.488;2023-04-09T12:22:54;30.40;1.00
1377;DHT22;682;52.502;13.488;2023-04-09T12:25:21;30.20;1.00
1377;DHT22;682;52.502;13.488;2023-04-09T12:27:48;29.90;1.00
1377;DHT22;682;52.502;13.488;2023-04-09T12:30:15;30.00;1.00
1377;DHT22;682;52.502;13.488;2023-04-09T12:32:45;30.00;1.00
1377;DHT22;682;52.502;13.488;2023-04-09T12:35:13;29.90;1.00
1377;DHT22;682;52.502;13.488;2023-04-09T12:37:41;30.60;1.00
1377;DHT22;682;52.502;13.488;2023-04-09T12:40:09;31.40;1.00
1377;DHT22;682;52.502;13.488;2023-04-09T12:42:38;31.80;1.00
1377;DHT22;682;52.502;13.488;2023-04-09T12:45:06;31.90;1.00
1377;DHT22;682;52.502;13.488;2023-04-09T12:47:34;31.40;1.00
1377;DHT22;682;52.502;13.488;2023-04-09T12:50:02;30.70;1.00
1377;DHT22;682;52.502;13.488;2023-04-09T12:52:30;31.00;1.00
1377;DHT22;682;52.502;13.488;2023-04-09T12:54:57;31.00;1.00
1377;DHT22;682;52.502;13.488;2023-04-09T12:57:25;31.40;1.00
1377;DHT22;682;52.502;13.488;2023-04-09T12:59:52;31.90;1.00
1377;DHT22;682;52.502;13.488;2023-04-09T13:02:19;31.80;1.00
1377;DHT22;682;52.502;13.488;2023-04-09T13:04:47;31.00;1.00
1377;DHT22;682;52.502;13.488;2023-04-09T13:07:14;30.90;1.00
1377;DHT22;682;52.502;13.488;2023-04-09T13:09:44;30.80;1.00
1377;DHT22;682;52.502;13.488;2023-04-09T13:12:11;30.20;1.00
1377;DHT22;682;52.502;13.488;2023-04-09T13:14:39;30.30;1.00
1377;DHT22;682;52.502;13.488;2023-04-09T13:17:07;30.40;1.00
1377;DHT22;682;52.502;13.488;2023-04-09T13:19:34;31.00;1.00
1377;DHT22;682;52.502;13.488;2023-04-09T13:22:01;32.00;1.00
1377;DHT22;682;52.502;13.488;2023-04-09T13:24:30;32.40;1.00
1377;DHT22;682;52.502;13.488;2023-04-09T13:26:59;32.90;1.00
1377;DHT22;682;52.502;13.488;2023-04-09T13:29:26;33.40;1.00
1377;DHT22;682;52.502;13.488;2023-04-09T13:31:55;33.60;1.00
1377;DHT22;682;52.502;13.488;2023-04-09T13:34:23;33.10;1.00
1377;DHT22;682;52.502;13.488;2023-04-09T13:36:50;32.50;1.00
1377;DHT22;682;52.502;13.488;2023-04-09T13:39:20;31.70;1.00
1377;DHT22;682;52.502;13.488;2023-04-09T13:41:47;31.10;1.00
1377;DHT22;682;52.502;13.488;2023-04-09T13:44:15;31.10;1.00
1377;DHT22;682;52.502;13.488;2023-04-09T13:46:42;31.60;1.00
1377;DHT22;682;52.502;13.488;2023-04-09T13:49:09;31.60;1.00
1377;DHT22;682;52.502;13.488;2023-04-09T13:51:36;31.40;1.00
1377;DHT22;682;52.502;13.488;2023-04-09T13:54:03;31.20;1.00
1377;DHT22;682;52.502;13.488;2023-04-09T13:56:32;29.50;1.00
1377;DHT22;682;52.502;13.488;2023-04-09T13:58:59;27.40;1.00
1377;DHT22;682;52.502;13.488;2023-04-09T14:01:28;25.90;1.00
1377;DHT22;682;52.502;13.488;2023-04-09T14:03:55;24.20;1.00
1377;DHT22;682;52.502;13.488;2023-04-09T14:06:22;23.10;1.00
1377;DHT22;682;52.502;13.488;2023-04-09T14:08:49;22.00;1.00
1377;DHT22;682;52.502;13.488;2023-04-09T14:11:16;21.70;1.00
1377;DHT22;682;52.502;13.488;2023-04-09T14:13:43;21.00;1.00
1377;DHT22;682;52.502;13.488;2023-04-09T14:16:10;20.20;1.00
1377;DHT22;682;52.502;13.488;2023-04-09T14:18:39;19.50;1.00
1377;DHT22;682;52.502;13.488;2023-04-09T14:21:08;19.20;1.00
1377;DHT22;682;52.502;13.488;2023-04-09T14:23:35;18.90;1.00
1377;DHT22;682;52.502;13.488;2023-04-09T14:26:04;18.60;1.00
1377;DHT22;682;52.502;13.488;2023-04-09T14:28:31;18.30;1.00
1377;DHT22;682;52.502;13.488;2023-04-09T14:30:58;18.30;1.00
1377;DHT22;682;52.502;13.488;2023-04-09T14:33:25;18.20;1.00
1377;DHT22;682;52.502;13.488;2023-04-09T14:35:54;18.10;1.00
1377;DHT22;682;52.502;13.488;2023-04-09T14:38:20;18.00;1.00
1377;DHT22;682;52.502;13.488;2023-04-09T14:40:48;17.80;1.00
1377;DHT22;682;52.502;13.488;2023-04-09T14:43:15;17.70;1.00
1377;DHT22;682;52.502;13.488;2023-04-09T14:45:42;17.40;1.00
1377;DHT22;682;52.502;13.488;2023-04-09T14:48:10;17.40;1.00
1377;DHT22;682;52.502;13.488;2023-04-09T14:50:36;17.40;1.00
1377;DHT22;682;52.502;13.488;2023-04-09T14:53:07;17.40;1.00
1377;DHT22;682;52.502;13.488;2023-04-09T14:55:34;17.40;1.00
1377;DHT22;682;52.502;13.488;2023-04-09T14:58:01;17.30;1.00
1377;DHT22;682;52.502;13.488;2023-04-09T15:00:33;17.30;1.00
1377;DHT22;682;52.502;13.488;2023-04-09T15:03:00;17.30;1.00
1377;DHT22;682;52.502;13.488;2023-04-09T15:05:28;17.30;1.00
1377;DHT22;682;52.502;13.488;2023-04-09T15:07:55;17.10;1.00
1377;DHT22;682;52.502;13.488;2023-04-09T15:10:24;17.00;1.00
1377;DHT22;682;52.502;13.488;2023-04-09T15:12:51;16.80;1.00
1377;DHT22;682;52.502;13.488;2023-04-09T15:15:18;16.70;1.00
1377;DHT22;682;52.502;13.488;2023-04-09T15:17:45;16.80;1.00
1377;DHT22;682;52.502;13.488;2023-04-09T15:20:16;16.70;1.00
1377;DHT22;682;52.502;13.488;2023-04-09T15:22:45;16.70;1.00
1377;DHT22;682;52.502;13.488;2023-04-09T15:25:15;16.70;1.00
1377;DHT22;682;52.502;13.488;2023-04-09T15:27:44;16.70;1.00
1377;DHT22;682;52.502;13.488;2023-04-09T15:30:11;16.60;1.00
1377;DHT22;682;52.502;13.488;2023-04-09T15:32:39;16.50;1.00
1377;DHT22;682;52.502;13.488;2023-04-09T15:35:28;16.50;1.00
1377;DHT22;682;52.502;13.488;2023-04-09T15:37:56;16.40;1.00
1377;DHT22;682;52.502;13.488;2023-04-09T15:40:23;16.40;1.00
1377;DHT22;682;52.502;13.488;2023-04-09T15:42:50;16.30;1.00
1377;DHT22;682;52.502;13.488;2023-04-09T15:45:17;16.30;1.00
1377;DHT22;682;52.502;13.488;2023-04-09T15:47:49;16.30;1.00
1377;DHT22;682;52.502;13.488;2023-04-09T15:50:16;16.30;1.00
1377;DHT22;682;52.502;13.488;2023-04-09T15:52:44;16.30;1.00
1377;DHT22;682;52.502;13.488;2023-04-09T15:55:13;16.20;1.00
1377;DHT22;682;52.502;13.488;2023-04-09T15:57:40;16.10;1.00
1377;DHT22;682;52.502;13.488;2023-04-09T16:00:11;16.00;1.00
1377;DHT22;682;52.502;13.488;2023-04-09T16:02:40;15.90;1.00
1377;DHT22;682;52.502;13.488;2023-04-09T16:05:07;15.70;1.00
1377;DHT22;682;52.502;13.488;2023-04-09T16:07:34;15.70;1.00
1377;DHT22;682;52.502;13.488;2023-04-09T16:10:03;15.50;1.00
1377;DHT22;682;52.502;13.488;2023-04-09T16:12:31;15.50;1.00
1377;DHT22;682;52.502;13.488;2023-04-09T16:14:58;15.50;1.00
1377;DHT22;682;52.502;13.488;2023-04-09T16:17:25;15.50;1.00
1377;DHT22;682;52.502;13.488;2023-04-09T16:19:52;15.40;1.00
1377;DHT22;682;52.502;13.488;2023-04-09T16:22:22;15.40;1.00
1377;DHT22;682;52.502;13.488;2023-04-09T16:24:51;15.40;1.00
1377;DHT22;682;52.502;13.488;2023-04-09T16:27:20;15.30;1.00
1377;DHT22;682;52.502;13.488;2023-04-09T16:29:48;15.20;1.00
1377;DHT22;682;52.502;13.488;2023-04-09T16:32:15;15.10;1.00
1377;DHT22;682;52.502;13.488;2023-04-09T16:34:42;15.10;1.00
1377;DHT22;682;52.502;13.488;2023-04-09T16:37:09;15.10;1.00
1377;DHT22;682;52.502;13.488;2023-04-09T16:39:36;15.00;1.00
1377;DHT22;682;52.502;13.488;2023-04-09T16:42:03;15.00;1.00